Data for 03/02/2009

Time Sea-Level Adjusted Pressure Absolute Pressure Temperature Relative Humidity Dew Point   
(mb) (inHg) (mb) (inHg) (C) (F) (%) (C) (F)
00:05 1017 30.03 846 24.98 4.6 40.2 43 -6.8 19.7
00:10 1017 30.03 846 24.98 4.1 39.5 46 -6.4 20.4
00:15 1017 30.03 846 24.98 3.7 38.6 48 -6.2 20.8
00:20 1017 30.03 846 24.98 3.5 38.2 50 -6.1 21.1
00:25 1017 30.03 846 24.98 3.6 38.5 48 -6.3 20.7
00:30 1017 30.03 846 24.98 3.6 38.6 48 -6.2 20.8
00:35 1017 30.03 846 24.98 4 39.1 44 -7.2 19.1
00:40 1017 30.03 846 24.98 4.5 40.2 44 -6.8 19.8
00:45 1017 30.03 846 24.98 4.6 40.3 42 -7.1 19.2
00:50 1017 30.03 846 24.98 4.4 40 46 -6.2 20.8
00:55 1017 30.03 846 24.98 4.2 39.6 44 -7 19.4
01:00 1017 30.03 846 24.98 4.5 40.1 45 -6.5 20.4
01:05 1017 30.03 846 24.98 4.2 39.6 45 -6.6 20.1
01:10 1017 30.03 846 24.98 4 39.2 45 -6.8 19.8
01:15 1017 30.03 846 24.98 4 39.2 45 -6.8 19.8
01:20 1017 30.03 846 24.98 3.9 39 46 -6.6 20
01:25 1017 30.03 846 24.98 3.8 38.9 47 -6.6 20.1
01:30 1017 30.03 846 24.98 3.7 38.7 46 -6.9 19.6
01:35 1017 30.03 846 24.98 3.9 39 44 -7.2 19
01:40 1017 30.03 846 24.98 4 39.1 45 -6.9 19.6
01:45 1017 30.03 846 24.98 4.3 39.8 42 -7.4 18.7
01:50 1017 30.03 846 24.98 4.5 40 43 -7.1 19.1
01:55 1017 30.03 846 24.98 4.3 39.7 42 -7.5 18.4
02:00 1017 30.03 846 24.98 4.6 40.3 40 -7.7 18.1
02:05 1017 30.03 846 24.98 4.8 40.7 40 -7.8 17.9
02:10 1017 30.03 846 24.98 4.7 40.4 41 -7.5 18.6
02:15 1017 30.03 846 24.98 4.8 40.6 43 -6.8 19.8
02:20 1017 30.03 846 24.98 4.4 39.9 43 -7 19.3
02:25 1017 30.03 846 24.98 4.2 39.6 46 -6.4 20.5
02:30 1017 30.03 846 24.98 3.9 39 47 -6.5 20.3
02:35 1017 30.03 846 24.98 3.6 38.4 48 -6.3 20.6
02:40 1017 30.03 846 24.98 3.7 38.6 45 -7.3 18.9
02:45 1016 30 846 24.98 3.8 38.8 46 -6.7 19.9
02:50 1017 30.03 846 24.98 3.6 38.4 47 -6.6 20
02:55 1017 30.03 846 24.98 3.7 38.6 46 -6.8 19.7
03:00 1016 30 846 24.98 3.6 38.5 47 -6.7 19.9
03:05 1016 30 846 24.98 3.6 38.6 47 -6.7 19.9
03:10 1016 30 846 24.98 3.8 38.9 45 -7 19.3
03:15 1016 30 846 24.98 3.8 38.8 47 -6.6 20.1
03:20 1016 30 846 24.98 3.2 37.8 49 -6.6 20.1
03:25 1016 30 846 24.98 3.1 37.5 48 -6.9 19.6
03:30 1017 30.03 846 24.98 2.9 37.3 48 -7 19.5
03:35 1017 30.03 846 24.98 3 37.4 49 -6.7 19.9
03:40 1016 30 846 24.98 3 37.5 48 -6.9 19.5
03:45 1017 30.03 846 24.98 3 37.4 48 -6.9 19.6
03:50 1017 30.03 846 24.98 2.9 37.3 49 -6.7 20
03:55 1016 30 846 24.98 2.6 36.6 52 -6.3 20.7
04:00 1016 30 846 24.98 2 35.6 55 -6.1 21
04:05 1016 30 846 24.98 2 35.5 56 -6 21.2
04:10 1017 30.03 846 24.98 1.7 35.1 55 -6.4 20.5
04:15 1016 30 846 24.98 2 35.7 55 -6.1 21
04:20 1016 30 846 24.98 2.1 35.7 52 -6.8 19.8
04:25 1016 30 846 24.98 2.8 37 48 -7.2 19.1
04:30 1016 30 846 24.98 3.1 37.6 49 -6.7 20
04:35 1016 30 846 24.98 2.5 36.6 50 -6.8 19.8
04:40 1016 30 845 24.95 2.1 35.8 52 -6.8 19.7
04:45 1016 30 845 24.95 1.8 35.2 53 -6.8 19.7
04:50 1016 30 845 24.95 1.6 34.9 54 -6.8 19.7
04:55 1016 30 846 24.98 1.6 34.9 52 -7.1 19.3
05:00 1016 30 845 24.95 1.7 35.1 53 -6.9 19.6
05:05 1016 30 845 24.95 2.1 35.8 49 -7.4 18.7
05:10 1016 30 845 24.95 2.8 37 47 -7.3 18.8
05:15 1016 30 845 24.95 3.1 37.6 48 -6.9 19.6
05:20 1016 30 845 24.95 3 37.4 48 -7 19.5
05:25 1016 30 845 24.95 2.8 37.1 48 -7.1 19.2
05:30 1016 30 845 24.95 3 37.3 49 -6.8 19.7
05:35 1016 30 845 24.95 2.8 37.1 49 -6.9 19.6
05:40 1016 30 845 24.95 2.6 36.7 49 -7 19.4
05:45 1016 30 845 24.95 2.6 36.6 49 -7.1 19.3
05:50 1016 30 845 24.95 2.7 36.9 48 -7.3 18.8
05:55 1016 30 845 24.95 3.2 37.7 44 -7.8 18
06:00 1016 30 845 24.95 3.5 38.4 46 -7.2 19.1
06:05 1016 30 845 24.95 3.2 37.7 46 -7.3 18.9
06:10 1016 30 845 24.95 3.4 38.1 45 -7.4 18.7
06:15 1016 30 845 24.95 3.8 38.8 42 -7.9 17.8
06:20 1016 30 845 24.95 4 39.1 43 -7.5 18.5
06:25 1016 30 845 24.95 4 39.3 45 -6.9 19.6
06:30 1016 30 845 24.95 3.7 38.7 46 -6.8 19.7
06:35 1016 30 845 24.95 3.5 38.3 49 -6.4 20.6
06:40 1016 30 845 24.95 4 39.2 45 -6.9 19.6
06:45 1016 30 845 24.95 4.1 39.3 49 -5.7 21.7
06:50 1016 30 845 24.95 3.4 38.2 50 -6 21.2
06:55 1016 30 845 24.95 3.4 38 47 -6.8 19.8
07:00 1016 30 845 24.95 3.6 38.5 46 -7 19.5
07:05 1016 30 845 24.95 4 39.2 45 -7 19.3
07:10 1016 30 845 24.95 4.2 39.5 44 -7 19.4
07:15 1016 30 845 24.95 4.3 39.8 43 -7.2 19.1
07:20 1016 30 845 24.95 4.4 40 44 -6.7 19.9
07:25 1016 30 845 24.95 4.5 40.1 45 -6.5 20.3
07:30 1016 30 845 24.95 4.3 39.7 45 -6.6 20
07:35 1016 30 845 24.95 4.1 39.3 45 -6.7 19.9
07:40 1016 30 845 24.95 4.2 39.6 46 -6.4 20.5
07:45 1016 30 845 24.95 4.5 40 44 -6.6 20.1
07:50 1016 30 845 24.95 4.7 40.4 42 -7 19.4
07:55 1016 30 845 24.95 4.7 40.4 42 -7.1 19.3
08:00 1016 30 845 24.95 4.1 39.4 45 -6.9 19.6
08:05 1016 30 845 24.95 3.9 39.1 42 -7.8 18
08:10 1016 30 845 24.95 4.3 39.7 42 -7.4 18.7
08:15 1016 30 845 24.95 4.2 39.6 45 -6.7 19.9
08:20 1016 30 845 24.95 3.9 39 47 -6.4 20.5
08:25 1016 30 845 24.95 4.3 39.7 41 -7.7 18.1
08:30 1016 30 845 24.95 5 41 40 -7.6 18.4
08:35 1016 30 845 24.95 6.1 43 39 -7 19.5
08:40 1016 30 845 24.95 7.1 44.7 35 -7.2 19
08:45 1016 30 846 24.98 7.3 45.2 37 -6.5 20.3
08:50 1016 30 845 24.95 7.7 45.9 35 -6.7 20
08:55 1016 30 845 24.95 8.2 46.7 34 -6.9 19.6
09:00 1016 30 845 24.95 8.1 46.5 38 -5.6 22
09:05 1016 30 845 24.95 7.8 46 33 -7.4 18.6
09:10 1016 30 845 24.95 8 46.4 32 -7.6 18.3
09:15 1016 30 845 24.95 8.9 48 30 -7.6 18.3
09:20 1016 30 845 24.95 9.5 49.1 29 -7.5 18.5
09:25 1016 30 846 24.98 9.6 49.2 30 -7.3 18.9
09:30 1016 30 846 24.98 9.1 48.4 30 -7.6 18.3
09:35 1016 30 846 24.98 8.5 47.3 31 -7.8 17.9
09:40 1016 30 845 24.95 8.3 46.9 30 -8.2 17.2
09:45 1016 30 845 24.95 8.6 47.4 30 -8.2 17.3
09:50 1016 30 845 24.95 9.2 48.5 31 -7.1 19.3
09:55 1016 30 845 24.95 8.9 48 30 -7.6 18.4
10:00 1016 30 845 24.95 8.7 47.6 31 -7.3 18.8
10:05 1016 30 845 24.95 8.8 47.8 33 -6.5 20.3
10:10 1016 30 845 24.95 8.8 47.8 32 -7 19.5
10:15 1016 30 845 24.95 8.9 47.9 32 -6.9 19.6
10:20 1016 30 845 24.95 9.5 49.1 30 -7.4 18.7
10:25 1016 30 845 24.95 10.2 50.4 28 -7.3 18.8
10:30 1015 29.97 845 24.95 10.6 51 27 -7.5 18.5
10:35 1015 29.97 845 24.95 11.1 52 26 -7.9 17.8
10:40 1016 30 845 24.95 11.9 53.4 25 -7.7 18.1
10:45 1016 30 845 24.95 13.2 55.8 24 -7.1 19.2
10:50 1016 30 845 24.95 13.2 55.8 24 -6.8 19.7
10:55 1016 30 845 24.95 13.7 56.6 28 -4.4 24.2
11:00 1016 30 845 24.95 13.7 56.6 30 -3.4 25.9
11:05 1016 30 845 24.95 12.8 55.1 30 -4.2 24.4
11:10 1015 29.97 845 24.95 12.4 54.4 30 -4.4 24
11:15 1015 29.97 845 24.95 12.5 54.4 29 -5 23.1
11:20 1015 29.97 844 24.92 12.5 54.5 30 -4.5 24
11:25 1015 29.97 845 24.95 12.6 54.7 29 -4.7 23.6
11:30 1015 29.97 845 24.95 12.5 54.4 30 -4.7 23.6
11:35 1015 29.97 844 24.92 11.9 53.4 32 -4.4 24.1
11:40 1015 29.97 844 24.92 11.2 52.1 31 -5.3 22.5
11:45 1015 29.97 844 24.92 11.7 53.1 33 -4.1 24.6
11:50 1015 29.97 844 24.92 12 53.5 32 -4 24.8
11:55 1015 29.97 844 24.92 11.6 52.8 32 -4.4 24.2
12:00 1015 29.97 845 24.95 9.3 48.7 37 -4.8 23.4
12:05 1015 29.97 845 24.95 9.1 48.4 37 -4.8 23.3
12:10 1015 29.97 845 24.95 9.1 48.4 38 -4.4 24.1
12:15 1015 29.97 845 24.95 9 48.1 37 -5.1 22.8
12:20 1015 29.97 845 24.95 9.4 48.9 35 -5.2 22.7
12:25 1015 29.97 845 24.95 9.8 49.6 35 -5 22.9
12:30 1015 29.97 845 24.95 10.1 50.2 36 -4.4 24
12:35 1015 29.97 845 24.95 10.3 50.6 35 -4.4 24.1
12:40 1016 30 845 24.95 10.4 50.6 35 -4.2 24.4
12:45 1015 29.97 845 24.95 10 50 36 -4.4 24
12:50 1015 29.97 844 24.92 10.3 50.6 34 -5 23.1
12:55 1015 29.97 844 24.92 10.8 51.5 35 -3.9 25
13:00 1015 29.97 844 24.92 10.4 50.7 36 -4.1 24.6
13:05 1015 29.97 844 24.92 10.5 50.8 34 -4.6 23.8
13:10 1015 29.97 844 24.92 10.6 51.1 37 -3.5 25.6
13:15 1015 29.97 844 24.92 10.7 51.2 35 -4.3 24.3
13:20 1015 29.97 844 24.92 10.7 51.3 35 -4.1 24.6
13:25 1015 29.97 844 24.92 10.1 50.2 33 -5.3 22.4
13:30 1015 29.97 844 24.92 10.2 50.3 33 -5.6 22
13:35 1015 29.97 844 24.92 10.6 51 32 -5.3 22.5
13:40 1015 29.97 844 24.92 10.7 51.3 33 -4.9 23.2
13:45 1015 29.97 844 24.92 11.2 52.1 31 -5.3 22.4
13:50 1015 29.97 844 24.92 11.3 52.3 30 -5.8 21.5
13:55 1015 29.97 844 24.92 11.3 52.3 31 -5.2 22.6
14:00 1015 29.97 844 24.92 11.7 53.1 30 -5.1 22.8
14:05 1015 29.97 844 24.92 11.9 53.3 29 -5.4 22.3
14:10 1015 29.97 844 24.92 11.9 53.4 28 -5.8 21.5
14:15 1015 29.97 844 24.92 11.8 53.3 29 -5.6 21.9
14:20 1015 29.97 844 24.92 12 53.5 28 -5.8 21.5
14:25 1014 29.94 844 24.92 12 53.7 29 -5.5 22.2
14:30 1014 29.94 844 24.92 12.6 54.8 29 -4.7 23.5
14:35 1014 29.94 844 24.92 13.1 55.6 26 -5.7 21.8
14:40 1014 29.94 844 24.92 13.3 55.9 25 -6.4 20.5
14:45 1014 29.94 843 24.89 13.5 56.2 26 -5.6 21.8
14:50 1014 29.94 843 24.89 13.7 56.7 25 -5.9 21.4
14:55 1014 29.94 843 24.89 13.9 57 27 -4.9 23.3
15:00 1014 29.94 843 24.89 14.1 57.3 28 -4.2 24.4
15:05 1014 29.94 843 24.89 14.3 57.7 25 -5.4 22.3
15:10 1014 29.94 843 24.89 14.8 58.7 25 -5 23
15:15 1014 29.94 843 24.89 14.8 58.6 24 -5.8 21.6
15:20 1014 29.94 843 24.89 14.8 58.7 24 -5.7 21.8
15:25 1014 29.94 843 24.89 14.4 58 25 -5.3 22.4
15:30 1014 29.94 843 24.89 14.4 57.9 24 -6.1 21.1
15:35 1014 29.94 843 24.89 14.8 58.7 24 -5.6 21.8
15:40 1014 29.94 843 24.89 14.7 58.5 24 -5.7 21.8
15:45 1014 29.94 843 24.89 14.3 57.8 23 -6.3 20.7
15:50 1014 29.94 843 24.89 14.5 58.2 26 -4.9 23.2
15:55 1014 29.94 843 24.89 14.8 58.6 24 -5.5 22.2
16:00 1014 29.94 843 24.89 14.7 58.4 24 -5.5 22.1
16:05 1014 29.94 843 24.89 14.1 57.3 26 -5.3 22.5
16:10 1014 29.94 843 24.89 13.9 57 26 -5.2 22.6
16:15 1013 29.91 843 24.89 14.1 57.5 26 -5 23
16:20 1013 29.91 843 24.89 14.4 57.8 27 -4.4 24
16:25 1013 29.91 843 24.89 14.3 57.7 28 -4.1 24.6
16:30 1013 29.91 843 24.89 13.9 56.9 26 -5.1 22.8
16:35 1013 29.91 842 24.86 13.7 56.6 27 -4.7 23.5
16:40 1013 29.91 842 24.86 14 57.2 27 -4.7 23.5
16:45 1013 29.91 842 24.86 14.1 57.5 26 -4.8 23.3
16:50 1013 29.91 842 24.86 14.3 57.7 26 -5.1 22.9
16:55 1013 29.91 842 24.86 14.7 58.5 26 -4.4 24
17:00 1013 29.91 842 24.86 14.8 58.6 25 -4.7 23.5
17:05 1013 29.91 842 24.86 14.9 58.8 25 -4.7 23.5
17:10 1013 29.91 842 24.86 14.7 58.5 27 -4.2 24.4
17:15 1013 29.91 842 24.86 14.6 58.3 25 -5 23
17:20 1013 29.91 842 24.86 14.4 57.9 25 -5.1 22.7
17:25 1013 29.91 842 24.86 14.5 58.1 27 -4.3 24.3
17:30 1012 29.88 842 24.86 13.7 56.6 27 -5 23
17:35 1012 29.88 842 24.86 13.7 56.6 28 -4.6 23.6
17:40 1013 29.91 842 24.86 13.4 56.1 27 -5.2 22.7
17:45 1013 29.91 842 24.86 13.5 56.3 25 -5.9 21.3
17:50 1012 29.88 842 24.86 13.5 56.2 25 -5.9 21.3
17:55 1012 29.88 842 24.86 13.2 55.7 26 -5.6 21.9
18:00 1012 29.88 842 24.86 12.9 55.2 25 -6.4 20.5
18:05 1012 29.88 842 24.86 12.6 54.7 27 -6 21.3
18:10 1012 29.88 842 24.86 12.3 54.2 27 -6.1 21.1
18:15 1012 29.88 842 24.86 12.3 54.2 27 -6.3 20.7
18:20 1013 29.91 842 24.86 12.6 54.6 27 -6 21.2
18:25 1012 29.88 842 24.86 11.7 53.1 28 -6.1 21
18:30 1012 29.88 842 24.86 11.8 53.3 27 -6.4 20.6
18:35 1012 29.88 842 24.86 12.5 54.5 26 -6.4 20.4
18:40 1012 29.88 842 24.86 12.7 54.8 25 -6.8 19.8
18:45 1012 29.88 842 24.86 12.8 55.1 26 -6.3 20.7
18:50 1012 29.88 841 24.83 12.2 54 27 -6.3 20.7
18:55 1012 29.88 841 24.83 11.7 53.1 26 -6.9 19.5
19:00 1012 29.88 841 24.83 12 53.6 28 -5.9 21.3
19:05 1012 29.88 841 24.83 11.8 53.3 28 -6 21.1
19:10 1012 29.88 841 24.83 11.2 52.1 34 -3.9 24.9
19:15 1012 29.88 841 24.83 9.3 48.8 35 -5.4 22.3
19:20 1012 29.88 841 24.83 9.3 48.7 36 -4.8 23.3
19:25 1012 29.88 841 24.83 8.9 48.1 32 -6.8 19.7
19:30 1012 29.88 841 24.83 10.1 50.2 31 -6.4 20.5
19:35 1012 29.88 841 24.83 10.5 50.9 30 -6.3 20.6
19:40 1012 29.88 841 24.83 10.4 50.8 31 -5.9 21.4
19:45 1012 29.88 841 24.83 10.1 50.2 32 -5.8 21.5
19:50 1012 29.88 841 24.83 11.1 52 27 -7.1 19.2
19:55 1012 29.88 841 24.83 12.2 54 28 -5.8 21.6
20:00 1012 29.88 841 24.83 11.9 53.4 29 -5.7 21.8
20:05 1012 29.88 841 24.83 11.9 53.4 30 -5.2 22.6
20:10 1012 29.88 841 24.83 12 53.6 30 -5 22.9
20:15 1012 29.88 841 24.83 11.7 53.1 30 -5.2 22.6
20:20 1012 29.88 841 24.83 11.2 52.1 32 -5 22.9
20:25 1012 29.88 841 24.83 10.2 50.3 33 -5.4 22.2
20:30 1012 29.88 841 24.83 10.1 50.1 32 -5.9 21.3
20:35 1012 29.88 842 24.86 10 50 33 -5.5 22.1
20:40 1012 29.88 842 24.86 10.2 50.3 32 -5.8 21.5
20:45 1012 29.88 841 24.83 10.5 50.8 31 -5.8 21.5
20:50 1012 29.88 841 24.83 10.6 51.1 32 -5.4 22.2
20:55 1012 29.88 841 24.83 10.7 51.3 32 -5.4 22.3
21:00 1012 29.88 841 24.83 10.4 50.7 34 -4.9 23.2
21:05 1012 29.88 841 24.83 10.3 50.5 36 -4.2 24.5
21:10 1012 29.88 841 24.83 10.5 50.8 36 -3.9 25
21:15 1012 29.88 841 24.83 10.2 50.4 38 -3.5 25.7
21:20 1012 29.88 841 24.83 10 50 39 -3.4 26
21:25 1012 29.88 841 24.83 9.9 49.8 40 -3 26.7
21:30 1012 29.88 841 24.83 9.7 49.4 40 -3.2 26.2
21:35 1012 29.88 841 24.83 9.9 49.8 39 -3.6 25.6
21:40 1012 29.88 841 24.83 9.7 49.5 41 -2.8 26.9
21:45 1012 29.88 841 24.83 8.6 47.5 44 -2.8 26.9
21:50 1012 29.88 841 24.83 8.2 46.8 45 -3.1 26.4
21:55 1012 29.88 841 24.83 8.5 47.4 45 -2.6 27.4
22:00 1012 29.88 841 24.83 8.7 47.7 46 -2.2 28
22:05 1011 29.85 841 24.83 8.7 47.6 47 -2.1 28.3
22:10 1011 29.85 841 24.83 8.5 47.2 48 -2 28.4
22:15 1011 29.85 841 24.83 8.3 47 49 -1.8 28.8
22:20 1011 29.85 840 24.81 8.5 47.2 48 -1.9 28.7
22:25 1011 29.85 840 24.81 8.4 47.1 49 -1.5 29.2
22:30 1011 29.85 840 24.81 8.2 46.8 49 -1.9 28.7
22:35 1011 29.85 840 24.81 8.8 47.8 45 -2.5 27.6
22:40 1011 29.85 840 24.81 9.4 48.8 44 -2.3 27.8
22:45 1011 29.85 840 24.81 9.3 48.8 45 -1.9 28.5
22:50 1011 29.85 840 24.81 9 48.3 46 -1.9 28.6
22:55 1011 29.85 840 24.81 8.7 47.6 48 -1.7 28.9
23:00 1011 29.85 840 24.81 8.5 47.4 48 -1.7 28.9
23:05 1011 29.85 840 24.81 8.5 47.3 48 -2 28.4
23:10 1011 29.85 840 24.81 8.5 47.2 48 -2 28.4
23:15 1011 29.85 840 24.81 9.3 48.7 40 -3.5 25.6
23:20 1011 29.85 840 24.81 10.1 50.1 39 -3.1 26.5
23:25 1011 29.85 840 24.81 10.4 50.8 41 -2.2 28.1
23:30 1011 29.85 840 24.81 10 50.1 45 -1.4 29.4
23:35 1010 29.83 840 24.81 9.1 48.4 47 -1.7 28.9
23:40 1010 29.83 840 24.81 8.9 48.1 47 -1.8 28.8
23:45 1010 29.83 840 24.81 9.1 48.3 46 -2 28.5
23:50 1010 29.83 840 24.81 9.3 48.7 45 -1.9 28.6
23:55 1010 29.83 840 24.81 9.6 49.2 43 -2.2 28
24:00 1010 29.83 840 24.81 9.5 49.1 44 -2.1 28.2